sensor_id;sensor_type;location;lat;lon;timestamp;P1;durP1;ratioP1;P2;durP2;ratioP2
20230;SDS011;10274;49.022;9.338;2023-03-03T00:00:07;16.00;;;9.50;;
20230;SDS011;10274;49.022;9.338;2023-03-03T00:02:34;13.60;;;9.37;;
20230;SDS011;10274;49.022;9.338;2023-03-03T00:05:01;13.07;;;7.77;;
20230;SDS011;10274;49.022;9.338;2023-03-03T00:07:29;18.80;;;10.30;;
20230;SDS011;10274;49.022;9.338;2023-03-03T00:09:56;15.57;;;8.70;;
20230;SDS011;10274;49.022;9.338;2023-03-03T00:12:23;15.23;;;9.03;;
20230;SDS011;10274;49.022;9.338;2023-03-03T00:14:52;14.47;;;8.30;;
20230;SDS011;10274;49.022;9.338;2023-03-03T00:17:21;16.23;;;9.40;;
20230;SDS011;10274;49.022;9.338;2023-03-03T00:19:49;12.20;;;8.47;;
20230;SDS011;10274;49.022;9.338;2023-03-03T00:22:27;14.13;;;8.67;;
20230;SDS011;10274;49.022;9.338;2023-03-03T00:24:58;16.47;;;8.50;;
20230;SDS011;10274;49.022;9.338;2023-03-03T00:27:27;13.90;;;8.57;;
20230;SDS011;10274;49.022;9.338;2023-03-03T00:29:56;14.83;;;8.27;;
20230;SDS011;10274;49.022;9.338;2023-03-03T00:32:24;12.77;;;7.40;;
20230;SDS011;10274;49.022;9.338;2023-03-03T00:34:52;14.97;;;9.20;;
20230;SDS011;10274;49.022;9.338;2023-03-03T00:37:30;13.50;;;7.43;;
20230;SDS011;10274;49.022;9.338;2023-03-03T00:42:50;17.37;;;9.43;;
20230;SDS011;10274;49.022;9.338;2023-03-03T00:45:28;14.43;;;8.13;;
20230;SDS011;10274;49.022;9.338;2023-03-03T00:47:57;12.80;;;8.40;;
20230;SDS011;10274;49.022;9.338;2023-03-03T00:50:25;11.13;;;7.80;;
20230;SDS011;10274;49.022;9.338;2023-03-03T00:52:59;12.00;;;6.87;;
20230;SDS011;10274;49.022;9.338;2023-03-03T00:55:32;14.87;;;8.10;;
20230;SDS011;10274;49.022;9.338;2023-03-03T00:58:00;14.43;;;9.27;;
20230;SDS011;10274;49.022;9.338;2023-03-03T01:00:27;19.37;;;9.73;;
20230;SDS011;10274;49.022;9.338;2023-03-03T01:02:54;16.07;;;8.63;;
20230;SDS011;10274;49.022;9.338;2023-03-03T01:05:21;14.03;;;9.00;;
20230;SDS011;10274;49.022;9.338;2023-03-03T01:07:47;14.47;;;9.10;;
20230;SDS011;10274;49.022;9.338;2023-03-03T01:10:14;14.60;;;8.50;;
20230;SDS011;10274;49.022;9.338;2023-03-03T01:12:42;16.00;;;9.63;;
20230;SDS011;10274;49.022;9.338;2023-03-03T01:15:09;11.90;;;7.87;;
20230;SDS011;10274;49.022;9.338;2023-03-03T01:17:38;16.40;;;8.63;;
20230;SDS011;10274;49.022;9.338;2023-03-03T01:20:05;15.17;;;9.07;;
20230;SDS011;10274;49.022;9.338;2023-03-03T01:22:33;13.60;;;8.77;;
20230;SDS011;10274;49.022;9.338;2023-03-03T01:25:00;14.50;;;8.60;;
20230;SDS011;10274;49.022;9.338;2023-03-03T01:27:28;14.97;;;9.30;;
20230;SDS011;10274;49.022;9.338;2023-03-03T01:29:56;15.40;;;8.70;;
20230;SDS011;10274;49.022;9.338;2023-03-03T01:32:23;15.33;;;9.03;;
20230;SDS011;10274;49.022;9.338;2023-03-03T01:34:50;15.33;;;7.57;;
20230;SDS011;10274;49.022;9.338;2023-03-03T01:37:17;14.90;;;8.73;;
20230;SDS011;10274;49.022;9.338;2023-03-03T01:39:46;13.43;;;7.80;;
20230;SDS011;10274;49.022;9.338;2023-03-03T01:42:14;14.77;;;8.57;;
20230;SDS011;10274;49.022;9.338;2023-03-03T01:44:41;14.33;;;8.87;;
20230;SDS011;10274;49.022;9.338;2023-03-03T01:47:09;14.37;;;8.73;;
20230;SDS011;10274;49.022;9.338;2023-03-03T01:49:39;13.53;;;8.17;;
20230;SDS011;10274;49.022;9.338;2023-03-03T01:52:10;17.47;;;9.23;;
20230;SDS011;10274;49.022;9.338;2023-03-03T01:54:39;19.97;;;10.20;;
20230;SDS011;10274;49.022;9.338;2023-03-03T01:57:09;14.03;;;9.30;;
20230;SDS011;10274;49.022;9.338;2023-03-03T01:59:42;14.00;;;8.10;;
20230;SDS011;10274;49.022;9.338;2023-03-03T02:02:13;15.03;;;8.67;;
20230;SDS011;10274;49.022;9.338;2023-03-03T02:04:40;19.30;;;10.20;;
20230;SDS011;10274;49.022;9.338;2023-03-03T02:07:08;14.53;;;8.37;;
20230;SDS011;10274;49.022;9.338;2023-03-03T02:09:38;13.97;;;9.23;;
20230;SDS011;10274;49.022;9.338;2023-03-03T02:12:11;12.13;;;8.13;;
20230;SDS011;10274;49.022;9.338;2023-03-03T02:14:41;15.00;;;8.67;;
20230;SDS011;10274;49.022;9.338;2023-03-03T02:17:08;15.20;;;9.37;;
20230;SDS011;10274;49.022;9.338;2023-03-03T02:19:38;13.80;;;8.73;;
20230;SDS011;10274;49.022;9.338;2023-03-03T02:22:12;15.07;;;9.23;;
20230;SDS011;10274;49.022;9.338;2023-03-03T02:24:44;18.20;;;9.10;;
20230;SDS011;10274;49.022;9.338;2023-03-03T02:27:18;16.13;;;9.20;;
20230;SDS011;10274;49.022;9.338;2023-03-03T02:29:44;15.07;;;8.63;;
20230;SDS011;10274;49.022;9.338;2023-03-03T02:32:11;14.57;;;8.40;;
20230;SDS011;10274;49.022;9.338;2023-03-03T02:34:45;14.03;;;8.47;;
20230;SDS011;10274;49.022;9.338;2023-03-03T02:37:12;15.90;;;9.07;;
20230;SDS011;10274;49.022;9.338;2023-03-03T02:39:39;18.63;;;8.63;;
20230;SDS011;10274;49.022;9.338;2023-03-03T02:42:07;14.07;;;9.20;;
20230;SDS011;10274;49.022;9.338;2023-03-03T02:44:40;13.83;;;8.47;;
20230;SDS011;10274;49.022;9.338;2023-03-03T02:47:07;16.87;;;8.87;;
20230;SDS011;10274;49.022;9.338;2023-03-03T02:49:34;14.33;;;9.13;;
20230;SDS011;10274;49.022;9.338;2023-03-03T02:52:03;16.93;;;10.10;;
20230;SDS011;10274;49.022;9.338;2023-03-03T02:54:33;15.67;;;8.63;;
20230;SDS011;10274;49.022;9.338;2023-03-03T02:57:01;16.23;;;8.53;;
20230;SDS011;10274;49.022;9.338;2023-03-03T02:59:28;16.63;;;9.57;;
20230;SDS011;10274;49.022;9.338;2023-03-03T03:01:56;13.60;;;8.87;;
20230;SDS011;10274;49.022;9.338;2023-03-03T03:04:24;16.00;;;8.90;;
20230;SDS011;10274;49.022;9.338;2023-03-03T03:06:51;16.30;;;9.77;;
20230;SDS011;10274;49.022;9.338;2023-03-03T03:09:19;15.50;;;9.23;;
20230;SDS011;10274;49.022;9.338;2023-03-03T03:11:47;17.13;;;9.27;;
20230;SDS011;10274;49.022;9.338;2023-03-03T03:14:14;13.60;;;8.27;;
20230;SDS011;10274;49.022;9.338;2023-03-03T03:16:41;15.23;;;9.10;;
20230;SDS011;10274;49.022;9.338;2023-03-03T03:19:09;18.57;;;9.37;;
20230;SDS011;10274;49.022;9.338;2023-03-03T03:21:36;14.47;;;8.63;;
20230;SDS011;10274;49.022;9.338;2023-03-03T03:24:02;14.13;;;7.47;;
20230;SDS011;10274;49.022;9.338;2023-03-03T03:26:29;12.10;;;7.43;;
20230;SDS011;10274;49.022;9.338;2023-03-03T03:28:56;14.87;;;8.63;;
20230;SDS011;10274;49.022;9.338;2023-03-03T03:31:23;16.53;;;8.73;;
20230;SDS011;10274;49.022;9.338;2023-03-03T03:33:49;12.37;;;8.53;;
20230;SDS011;10274;49.022;9.338;2023-03-03T03:36:18;14.40;;;8.87;;
20230;SDS011;10274;49.022;9.338;2023-03-03T03:38:45;14.43;;;8.93;;
20230;SDS011;10274;49.022;9.338;2023-03-03T03:41:11;12.33;;;7.73;;
20230;SDS011;10274;49.022;9.338;2023-03-03T03:43:38;19.10;;;9.60;;
20230;SDS011;10274;49.022;9.338;2023-03-03T03:46:05;15.40;;;7.90;;
20230;SDS011;10274;49.022;9.338;2023-03-03T03:48:32;13.10;;;8.27;;
20230;SDS011;10274;49.022;9.338;2023-03-03T03:51:00;13.87;;;9.10;;
20230;SDS011;10274;49.022;9.338;2023-03-03T03:53:28;14.77;;;8.77;;
20230;SDS011;10274;49.022;9.338;2023-03-03T03:55:54;12.23;;;7.73;;
20230;SDS011;10274;49.022;9.338;2023-03-03T03:58:21;14.23;;;8.60;;
20230;SDS011;10274;49.022;9.338;2023-03-03T04:00:48;13.70;;;9.60;;
20230;SDS011;10274;49.022;9.338;2023-03-03T04:03:14;19.73;;;10.80;;
20230;SDS011;10274;49.022;9.338;2023-03-03T04:05:41;17.67;;;9.87;;
20230;SDS011;10274;49.022;9.338;2023-03-03T04:08:08;15.43;;;9.57;;
20230;SDS011;10274;49.022;9.338;2023-03-03T04:10:37;14.30;;;8.93;;
20230;SDS011;10274;49.022;9.338;2023-03-03T04:13:04;18.03;;;10.30;;
20230;SDS011;10274;49.022;9.338;2023-03-03T04:15:31;13.80;;;8.43;;
20230;SDS011;10274;49.022;9.338;2023-03-03T04:17:57;16.07;;;9.60;;
20230;SDS011;10274;49.022;9.338;2023-03-03T04:20:24;15.97;;;9.30;;
20230;SDS011;10274;49.022;9.338;2023-03-03T04:22:51;15.23;;;8.87;;
20230;SDS011;10274;49.022;9.338;2023-03-03T04:25:17;14.57;;;8.03;;
20230;SDS011;10274;49.022;9.338;2023-03-03T04:27:46;15.53;;;8.63;;
20230;SDS011;10274;49.022;9.338;2023-03-03T04:30:13;14.17;;;7.97;;
20230;SDS011;10274;49.022;9.338;2023-03-03T04:32:40;14.87;;;8.97;;
20230;SDS011;10274;49.022;9.338;2023-03-03T04:35:08;15.70;;;9.50;;
20230;SDS011;10274;49.022;9.338;2023-03-03T04:37:35;15.37;;;9.27;;
20230;SDS011;10274;49.022;9.338;2023-03-03T04:40:03;16.47;;;9.27;;
20230;SDS011;10274;49.022;9.338;2023-03-03T04:42:30;13.13;;;8.10;;
20230;SDS011;10274;49.022;9.338;2023-03-03T04:44:59;16.03;;;9.43;;
20230;SDS011;10274;49.022;9.338;2023-03-03T04:47:25;15.43;;;9.17;;
20230;SDS011;10274;49.022;9.338;2023-03-03T04:49:52;15.87;;;9.53;;
20230;SDS011;10274;49.022;9.338;2023-03-03T04:52:19;15.83;;;10.03;;
20230;SDS011;10274;49.022;9.338;2023-03-03T04:54:45;19.20;;;10.83;;
20230;SDS011;10274;49.022;9.338;2023-03-03T04:57:12;16.90;;;9.03;;
20230;SDS011;10274;49.022;9.338;2023-03-03T04:59:39;17.97;;;9.47;;
20230;SDS011;10274;49.022;9.338;2023-03-03T05:02:07;16.07;;;9.77;;
20230;SDS011;10274;49.022;9.338;2023-03-03T05:04:33;16.80;;;9.60;;
20230;SDS011;10274;49.022;9.338;2023-03-03T05:07:00;15.10;;;8.33;;
20230;SDS011;10274;49.022;9.338;2023-03-03T05:09:27;14.17;;;8.83;;
20230;SDS011;10274;49.022;9.338;2023-03-03T05:11:54;17.60;;;9.53;;
20230;SDS011;10274;49.022;9.338;2023-03-03T05:14:20;15.67;;;9.23;;
20230;SDS011;10274;49.022;9.338;2023-03-03T05:16:47;19.33;;;10.90;;
20230;SDS011;10274;49.022;9.338;2023-03-03T05:19:15;16.77;;;9.73;;
20230;SDS011;10274;49.022;9.338;2023-03-03T05:21:42;18.37;;;10.43;;
20230;SDS011;10274;49.022;9.338;2023-03-03T05:24:09;16.90;;;9.33;;
20230;SDS011;10274;49.022;9.338;2023-03-03T05:26:36;14.63;;;8.80;;
20230;SDS011;10274;49.022;9.338;2023-03-03T05:29:05;19.43;;;10.20;;
20230;SDS011;10274;49.022;9.338;2023-03-03T05:31:33;18.80;;;10.13;;
20230;SDS011;10274;49.022;9.338;2023-03-03T05:33:59;16.93;;;9.80;;
20230;SDS011;10274;49.022;9.338;2023-03-03T05:36:27;16.80;;;9.43;;
20230;SDS011;10274;49.022;9.338;2023-03-03T05:38:54;16.53;;;8.77;;
20230;SDS011;10274;49.022;9.338;2023-03-03T05:41:21;19.77;;;10.63;;
20230;SDS011;10274;49.022;9.338;2023-03-03T05:43:47;19.47;;;11.07;;
20230;SDS011;10274;49.022;9.338;2023-03-03T05:46:14;17.97;;;9.60;;
20230;SDS011;10274;49.022;9.338;2023-03-03T05:48:41;18.07;;;10.50;;
20230;SDS011;10274;49.022;9.338;2023-03-03T05:51:08;18.57;;;10.27;;
20230;SDS011;10274;49.022;9.338;2023-03-03T05:53:36;17.60;;;10.03;;
20230;SDS011;10274;49.022;9.338;2023-03-03T05:56:03;17.53;;;10.80;;
20230;SDS011;10274;49.022;9.338;2023-03-03T05:58:30;16.67;;;9.33;;
20230;SDS011;10274;49.022;9.338;2023-03-03T06:00:56;16.47;;;9.77;;
20230;SDS011;10274;49.022;9.338;2023-03-03T06:03:23;19.70;;;11.07;;
20230;SDS011;10274;49.022;9.338;2023-03-03T06:05:50;15.03;;;9.07;;
20230;SDS011;10274;49.022;9.338;2023-03-03T06:08:16;16.90;;;10.23;;
20230;SDS011;10274;49.022;9.338;2023-03-03T06:10:44;18.00;;;9.70;;
20230;SDS011;10274;49.022;9.338;2023-03-03T06:13:11;16.10;;;9.03;;
20230;SDS011;10274;49.022;9.338;2023-03-03T06:15:38;17.13;;;9.77;;
20230;SDS011;10274;49.022;9.338;2023-03-03T06:18:04;16.83;;;9.33;;
20230;SDS011;10274;49.022;9.338;2023-03-03T06:20:32;17.17;;;10.60;;
20230;SDS011;10274;49.022;9.338;2023-03-03T06:22:59;21.50;;;12.30;;
20230;SDS011;10274;49.022;9.338;2023-03-03T06:25:26;18.53;;;11.43;;
20230;SDS011;10274;49.022;9.338;2023-03-03T06:27:54;17.80;;;10.57;;
20230;SDS011;10274;49.022;9.338;2023-03-03T06:30:21;19.83;;;11.50;;
20230;SDS011;10274;49.022;9.338;2023-03-03T06:32:47;17.27;;;10.43;;
20230;SDS011;10274;49.022;9.338;2023-03-03T06:35:14;15.80;;;10.17;;
20230;SDS011;10274;49.022;9.338;2023-03-03T06:37:42;16.70;;;9.80;;
20230;SDS011;10274;49.022;9.338;2023-03-03T06:40:09;18.27;;;11.93;;
20230;SDS011;10274;49.022;9.338;2023-03-03T06:42:36;15.07;;;8.97;;
20230;SDS011;10274;49.022;9.338;2023-03-03T06:45:05;15.13;;;10.00;;
20230;SDS011;10274;49.022;9.338;2023-03-03T06:47:32;18.37;;;11.00;;
20230;SDS011;10274;49.022;9.338;2023-03-03T06:49:59;15.57;;;10.33;;
20230;SDS011;10274;49.022;9.338;2023-03-03T06:52:26;17.20;;;9.30;;
20230;SDS011;10274;49.022;9.338;2023-03-03T06:54:53;15.03;;;9.40;;
20230;SDS011;10274;49.022;9.338;2023-03-03T06:57:24;14.57;;;9.27;;
20230;SDS011;10274;49.022;9.338;2023-03-03T06:59:53;15.30;;;10.10;;
20230;SDS011;10274;49.022;9.338;2023-03-03T07:02:23;18.70;;;9.30;;
20230;SDS011;10274;49.022;9.338;2023-03-03T07:04:50;15.17;;;9.67;;
20230;SDS011;10274;49.022;9.338;2023-03-03T07:07:22;18.50;;;11.37;;
20230;SDS011;10274;49.022;9.338;2023-03-03T07:09:50;18.00;;;9.87;;
20230;SDS011;10274;49.022;9.338;2023-03-03T07:12:18;17.37;;;10.37;;
20230;SDS011;10274;49.022;9.338;2023-03-03T07:14:47;14.40;;;9.30;;
20230;SDS011;10274;49.022;9.338;2023-03-03T07:17:20;13.63;;;8.87;;
20230;SDS011;10274;49.022;9.338;2023-03-03T07:19:50;14.97;;;8.63;;
20230;SDS011;10274;49.022;9.338;2023-03-03T07:22:18;14.87;;;9.07;;
20230;SDS011;10274;49.022;9.338;2023-03-03T07:24:47;13.97;;;8.07;;
20230;SDS011;10274;49.022;9.338;2023-03-03T07:27:16;14.97;;;7.90;;
20230;SDS011;10274;49.022;9.338;2023-03-03T07:29:48;18.10;;;8.73;;
20230;SDS011;10274;49.022;9.338;2023-03-03T07:32:26;16.23;;;9.07;;
20230;SDS011;10274;49.022;9.338;2023-03-03T07:35:01;14.67;;;9.30;;
20230;SDS011;10274;49.022;9.338;2023-03-03T07:37:49;13.90;;;8.67;;
20230;SDS011;10274;49.022;9.338;2023-03-03T07:40:30;17.97;;;10.10;;
20230;SDS011;10274;49.022;9.338;2023-03-03T07:43:11;13.47;;;8.43;;
20230;SDS011;10274;49.022;9.338;2023-03-03T07:45:52;16.00;;;9.43;;
20230;SDS011;10274;49.022;9.338;2023-03-03T07:48:23;13.07;;;8.60;;
20230;SDS011;10274;49.022;9.338;2023-03-03T07:50:57;15.63;;;8.90;;
20230;SDS011;10274;49.022;9.338;2023-03-03T07:53:29;14.13;;;8.70;;
20230;SDS011;10274;49.022;9.338;2023-03-03T07:55:58;19.13;;;9.80;;
20230;SDS011;10274;49.022;9.338;2023-03-03T07:58:26;23.37;;;12.50;;
20230;SDS011;10274;49.022;9.338;2023-03-03T08:03:53;15.20;;;9.43;;
20230;SDS011;10274;49.022;9.338;2023-03-03T08:06:42;20.67;;;10.40;;
20230;SDS011;10274;49.022;9.338;2023-03-03T08:12:28;19.50;;;10.80;;
20230;SDS011;10274;49.022;9.338;2023-03-03T08:15:18;16.10;;;9.70;;
20230;SDS011;10274;49.022;9.338;2023-03-03T08:17:46;16.90;;;9.43;;
20230;SDS011;10274;49.022;9.338;2023-03-03T08:23:19;13.33;;;7.93;;
20230;SDS011;10274;49.022;9.338;2023-03-03T08:25:46;12.63;;;8.00;;
20230;SDS011;10274;49.022;9.338;2023-03-03T08:28:14;14.23;;;8.33;;
20230;SDS011;10274;49.022;9.338;2023-03-03T08:30:42;10.77;;;8.00;;
20230;SDS011;10274;49.022;9.338;2023-03-03T08:33:10;13.00;;;9.37;;
20230;SDS011;10274;49.022;9.338;2023-03-03T08:35:37;11.23;;;7.47;;
20230;SDS011;10274;49.022;9.338;2023-03-03T08:38:03;13.80;;;8.03;;
20230;SDS011;10274;49.022;9.338;2023-03-03T08:40:32;11.73;;;7.20;;
20230;SDS011;10274;49.022;9.338;2023-03-03T08:43:00;10.37;;;6.80;;
20230;SDS011;10274;49.022;9.338;2023-03-03T08:45:26;10.93;;;6.57;;
20230;SDS011;10274;49.022;9.338;2023-03-03T08:47:54;10.23;;;7.00;;
20230;SDS011;10274;49.022;9.338;2023-03-03T08:50:20;10.97;;;7.00;;
20230;SDS011;10274;49.022;9.338;2023-03-03T08:52:47;11.10;;;6.47;;
20230;SDS011;10274;49.022;9.338;2023-03-03T08:55:14;10.57;;;6.17;;
20230;SDS011;10274;49.022;9.338;2023-03-03T08:57:42;9.87;;;6.17;;
20230;SDS011;10274;49.022;9.338;2023-03-03T09:00:10;11.83;;;4.87;;
20230;SDS011;10274;49.022;9.338;2023-03-03T09:02:39;10.97;;;7.03;;
20230;SDS011;10274;49.022;9.338;2023-03-03T09:05:06;12.30;;;6.87;;
20230;SDS011;10274;49.022;9.338;2023-03-03T09:07:33;18.17;;;10.63;;
20230;SDS011;10274;49.022;9.338;2023-03-03T09:10:00;12.60;;;7.83;;
20230;SDS011;10274;49.022;9.338;2023-03-03T09:12:28;9.03;;;5.53;;
20230;SDS011;10274;49.022;9.338;2023-03-03T09:14:58;7.80;;;4.77;;
20230;SDS011;10274;49.022;9.338;2023-03-03T09:17:29;8.53;;;6.00;;
20230;SDS011;10274;49.022;9.338;2023-03-03T09:19:59;8.07;;;5.57;;
20230;SDS011;10274;49.022;9.338;2023-03-03T09:22:36;8.03;;;5.37;;
20230;SDS011;10274;49.022;9.338;2023-03-03T09:25:05;9.20;;;5.00;;
20230;SDS011;10274;49.022;9.338;2023-03-03T09:27:46;9.10;;;5.63;;
20230;SDS011;10274;49.022;9.338;2023-03-03T09:30:27;8.63;;;6.00;;
20230;SDS011;10274;49.022;9.338;2023-03-03T09:33:00;9.00;;;5.77;;
20230;SDS011;10274;49.022;9.338;2023-03-03T09:35:34;7.63;;;4.37;;
20230;SDS011;10274;49.022;9.338;2023-03-03T09:38:09;9.40;;;6.73;;
20230;SDS011;10274;49.022;9.338;2023-03-03T09:40:52;7.43;;;5.43;;
20230;SDS011;10274;49.022;9.338;2023-03-03T09:43:33;5.67;;;4.40;;
20230;SDS011;10274;49.022;9.338;2023-03-03T09:46:04;11.50;;;4.93;;
20230;SDS011;10274;49.022;9.338;2023-03-03T09:48:47;7.97;;;5.37;;
20230;SDS011;10274;49.022;9.338;2023-03-03T09:51:30;9.23;;;4.77;;
20230;SDS011;10274;49.022;9.338;2023-03-03T09:54:13;8.83;;;5.43;;
20230;SDS011;10274;49.022;9.338;2023-03-03T09:56:58;5.23;;;4.33;;
20230;SDS011;10274;49.022;9.338;2023-03-03T09:59:37;9.73;;;5.67;;
20230;SDS011;10274;49.022;9.338;2023-03-03T10:02:23;7.77;;;5.37;;
20230;SDS011;10274;49.022;9.338;2023-03-03T10:05:04;7.10;;;4.80;;
20230;SDS011;10274;49.022;9.338;2023-03-03T10:07:41;10.77;;;6.03;;
20230;SDS011;10274;49.022;9.338;2023-03-03T10:10:18;8.83;;;5.43;;
20230;SDS011;10274;49.022;9.338;2023-03-03T10:12:57;7.57;;;5.50;;
20230;SDS011;10274;49.022;9.338;2023-03-03T10:15:36;8.83;;;5.30;;
20230;SDS011;10274;49.022;9.338;2023-03-03T10:18:14;6.20;;;4.27;;
20230;SDS011;10274;49.022;9.338;2023-03-03T10:20:56;5.93;;;5.33;;
20230;SDS011;10274;49.022;9.338;2023-03-03T10:23:37;5.80;;;4.47;;
20230;SDS011;10274;49.022;9.338;2023-03-03T10:26:15;7.90;;;4.17;;
20230;SDS011;10274;49.022;9.338;2023-03-03T10:28:50;6.30;;;4.27;;
20230;SDS011;10274;49.022;9.338;2023-03-03T10:31:34;7.50;;;4.37;;
20230;SDS011;10274;49.022;9.338;2023-03-03T10:34:15;6.13;;;5.00;;
20230;SDS011;10274;49.022;9.338;2023-03-03T10:37:07;6.83;;;5.03;;
20230;SDS011;10274;49.022;9.338;2023-03-03T10:39:48;8.60;;;5.70;;
20230;SDS011;10274;49.022;9.338;2023-03-03T10:42:31;8.67;;;5.27;;
20230;SDS011;10274;49.022;9.338;2023-03-03T10:45:23;7.67;;;4.23;;
20230;SDS011;10274;49.022;9.338;2023-03-03T10:48:07;7.20;;;4.27;;
20230;SDS011;10274;49.022;9.338;2023-03-03T10:50:52;7.77;;;4.50;;
20230;SDS011;10274;49.022;9.338;2023-03-03T10:53:26;7.43;;;5.00;;
20230;SDS011;10274;49.022;9.338;2023-03-03T10:56:03;6.17;;;4.53;;
20230;SDS011;10274;49.022;9.338;2023-03-03T10:58:44;8.30;;;5.27;;
20230;SDS011;10274;49.022;9.338;2023-03-03T11:01:28;7.80;;;5.17;;
20230;SDS011;10274;49.022;9.338;2023-03-03T11:04:07;8.03;;;5.00;;
20230;SDS011;10274;49.022;9.338;2023-03-03T11:06:56;11.37;;;5.50;;
20230;SDS011;10274;49.022;9.338;2023-03-03T11:09:37;8.63;;;5.80;;
20230;SDS011;10274;49.022;9.338;2023-03-03T11:12:18;7.83;;;6.10;;
20230;SDS011;10274;49.022;9.338;2023-03-03T11:15:03;9.23;;;6.00;;
20230;SDS011;10274;49.022;9.338;2023-03-03T11:17:51;9.00;;;5.30;;
20230;SDS011;10274;49.022;9.338;2023-03-03T11:20:30;8.00;;;5.40;;
20230;SDS011;10274;49.022;9.338;2023-03-03T11:23:06;6.97;;;5.80;;
20230;SDS011;10274;49.022;9.338;2023-03-03T11:25:49;7.67;;;4.37;;
20230;SDS011;10274;49.022;9.338;2023-03-03T11:28:29;7.30;;;4.80;;
20230;SDS011;10274;49.022;9.338;2023-03-03T11:31:06;8.27;;;5.27;;
20230;SDS011;10274;49.022;9.338;2023-03-03T11:33:42;7.77;;;4.67;;
20230;SDS011;10274;49.022;9.338;2023-03-03T11:36:17;6.47;;;4.60;;
20230;SDS011;10274;49.022;9.338;2023-03-03T11:38:52;8.87;;;5.73;;
20230;SDS011;10274;49.022;9.338;2023-03-03T11:41:30;10.17;;;6.70;;
20230;SDS011;10274;49.022;9.338;2023-03-03T11:44:03;8.87;;;5.87;;
20230;SDS011;10274;49.022;9.338;2023-03-03T11:46:38;9.57;;;5.77;;
20230;SDS011;10274;49.022;9.338;2023-03-03T11:49:10;7.33;;;5.30;;
20230;SDS011;10274;49.022;9.338;2023-03-03T11:51:44;7.17;;;5.87;;
20230;SDS011;10274;49.022;9.338;2023-03-03T11:54:18;9.60;;;5.97;;
20230;SDS011;10274;49.022;9.338;2023-03-03T11:56:48;10.40;;;5.57;;
20230;SDS011;10274;49.022;9.338;2023-03-03T12:02:30;8.93;;;5.83;;
20230;SDS011;10274;49.022;9.338;2023-03-03T12:05:10;6.50;;;5.17;;
20230;SDS011;10274;49.022;9.338;2023-03-03T12:07:44;8.13;;;5.13;;
20230;SDS011;10274;49.022;9.338;2023-03-03T12:10:23;8.60;;;5.50;;
20230;SDS011;10274;49.022;9.338;2023-03-03T12:12:58;9.60;;;6.10;;
20230;SDS011;10274;49.022;9.338;2023-03-03T12:15:30;9.70;;;5.50;;
20230;SDS011;10274;49.022;9.338;2023-03-03T12:21:10;8.33;;;5.80;;
20230;SDS011;10274;49.022;9.338;2023-03-03T12:23:51;10.33;;;6.33;;
20230;SDS011;10274;49.022;9.338;2023-03-03T12:26:31;8.60;;;5.73;;
20230;SDS011;10274;49.022;9.338;2023-03-03T12:29:04;6.10;;;5.20;;
20230;SDS011;10274;49.022;9.338;2023-03-03T12:31:38;10.13;;;6.17;;
20230;SDS011;10274;49.022;9.338;2023-03-03T12:34:16;8.10;;;5.90;;
20230;SDS011;10274;49.022;9.338;2023-03-03T12:36:58;12.13;;;6.60;;
20230;SDS011;10274;49.022;9.338;2023-03-03T12:39:40;9.90;;;5.73;;
20230;SDS011;10274;49.022;9.338;2023-03-03T12:42:18;7.80;;;5.63;;
20230;SDS011;10274;49.022;9.338;2023-03-03T12:44:55;9.17;;;5.70;;
20230;SDS011;10274;49.022;9.338;2023-03-03T12:47:28;8.80;;;5.43;;
20230;SDS011;10274;49.022;9.338;2023-03-03T12:50:08;8.73;;;5.93;;
20230;SDS011;10274;49.022;9.338;2023-03-03T12:52:49;9.87;;;6.70;;
20230;SDS011;10274;49.022;9.338;2023-03-03T12:55:23;11.00;;;5.83;;
20230;SDS011;10274;49.022;9.338;2023-03-03T12:58:00;9.50;;;6.33;;
20230;SDS011;10274;49.022;9.338;2023-03-03T13:00:39;9.77;;;6.43;;
20230;SDS011;10274;49.022;9.338;2023-03-03T13:03:16;7.13;;;5.20;;
20230;SDS011;10274;49.022;9.338;2023-03-03T13:05:54;8.60;;;5.70;;
20230;SDS011;10274;49.022;9.338;2023-03-03T13:08:29;9.97;;;5.97;;
20230;SDS011;10274;49.022;9.338;2023-03-03T13:11:13;10.13;;;6.10;;
20230;SDS011;10274;49.022;9.338;2023-03-03T13:13:55;11.03;;;6.70;;
20230;SDS011;10274;49.022;9.338;2023-03-03T13:16:30;7.53;;;5.33;;
20230;SDS011;10274;49.022;9.338;2023-03-03T13:19:03;9.03;;;5.23;;
20230;SDS011;10274;49.022;9.338;2023-03-03T13:21:35;9.13;;;6.13;;
20230;SDS011;10274;49.022;9.338;2023-03-03T13:24:06;9.43;;;5.80;;
20230;SDS011;10274;49.022;9.338;2023-03-03T13:26:43;9.37;;;5.87;;
20230;SDS011;10274;49.022;9.338;2023-03-03T13:29:18;11.93;;;6.10;;
20230;SDS011;10274;49.022;9.338;2023-03-03T13:31:50;9.83;;;5.63;;
20230;SDS011;10274;49.022;9.338;2023-03-03T13:34:23;9.30;;;6.23;;
20230;SDS011;10274;49.022;9.338;2023-03-03T13:36:59;9.87;;;5.57;;
20230;SDS011;10274;49.022;9.338;2023-03-03T13:39:31;7.70;;;5.30;;
20230;SDS011;10274;49.022;9.338;2023-03-03T13:42:03;11.20;;;6.93;;
20230;SDS011;10274;49.022;9.338;2023-03-03T13:44:41;8.23;;;6.10;;
20230;SDS011;10274;49.022;9.338;2023-03-03T13:47:12;9.43;;;6.47;;
20230;SDS011;10274;49.022;9.338;2023-03-03T13:49:51;10.83;;;6.57;;
20230;SDS011;10274;49.022;9.338;2023-03-03T13:52:25;13.03;;;6.47;;
20230;SDS011;10274;49.022;9.338;2023-03-03T13:55:00;9.90;;;6.43;;
20230;SDS011;10274;49.022;9.338;2023-03-03T13:57:44;9.73;;;5.87;;
20230;SDS011;10274;49.022;9.338;2023-03-03T14:00:26;10.40;;;6.07;;
20230;SDS011;10274;49.022;9.338;2023-03-03T14:03:06;8.55;;;5.93;;
20230;SDS011;10274;49.022;9.338;2023-03-03T14:05:43;10.13;;;5.25;;
20230;SDS011;10274;49.022;9.338;2023-03-03T14:08:13;10.32;;;6.80;;
20230;SDS011;10274;49.022;9.338;2023-03-03T14:10:53;9.43;;;6.53;;
20230;SDS011;10274;49.022;9.338;2023-03-03T14:13:33;9.20;;;6.68;;
20230;SDS011;10274;49.022;9.338;2023-03-03T14:16:06;8.65;;;6.25;;
20230;SDS011;10274;49.022;9.338;2023-03-03T14:18:39;8.15;;;6.18;;
20230;SDS011;10274;49.022;9.338;2023-03-03T14:21:10;9.65;;;6.47;;
20230;SDS011;10274;49.022;9.338;2023-03-03T14:23:45;10.25;;;6.40;;
20230;SDS011;10274;49.022;9.338;2023-03-03T14:26:16;9.50;;;6.93;;
20230;SDS011;10274;49.022;9.338;2023-03-03T14:28:43;10.07;;;6.65;;
20230;SDS011;10274;49.022;9.338;2023-03-03T14:31:17;8.38;;;6.10;;
20230;SDS011;10274;49.022;9.338;2023-03-03T14:33:56;9.95;;;6.72;;
20230;SDS011;10274;49.022;9.338;2023-03-03T14:36:26;8.52;;;6.07;;
20230;SDS011;10274;49.022;9.338;2023-03-03T14:38:55;9.68;;;6.43;;
20230;SDS011;10274;49.022;9.338;2023-03-03T14:41:33;8.77;;;5.95;;
20230;SDS011;10274;49.022;9.338;2023-03-03T14:47:01;11.88;;;7.28;;
20230;SDS011;10274;49.022;9.338;2023-03-03T14:49:44;12.73;;;7.25;;
20230;SDS011;10274;49.022;9.338;2023-03-03T14:52:17;9.13;;;6.90;;
20230;SDS011;10274;49.022;9.338;2023-03-03T14:54:47;8.40;;;6.00;;
20230;SDS011;10274;49.022;9.338;2023-03-03T14:57:15;9.90;;;6.40;;
20230;SDS011;10274;49.022;9.338;2023-03-03T14:59:54;10.33;;;7.17;;
20230;SDS011;10274;49.022;9.338;2023-03-03T15:02:35;8.10;;;6.23;;
20230;SDS011;10274;49.022;9.338;2023-03-03T15:05:15;8.20;;;5.87;;
20230;SDS011;10274;49.022;9.338;2023-03-03T15:07:44;10.33;;;6.20;;
20230;SDS011;10274;49.022;9.338;2023-03-03T15:10:14;8.80;;;5.93;;
20230;SDS011;10274;49.022;9.338;2023-03-03T15:12:52;9.73;;;6.47;;
20230;SDS011;10274;49.022;9.338;2023-03-03T15:15:20;13.20;;;6.37;;
20230;SDS011;10274;49.022;9.338;2023-03-03T15:17:54;11.23;;;7.20;;
20230;SDS011;10274;49.022;9.338;2023-03-03T15:23:18;9.70;;;5.37;;
20230;SDS011;10274;49.022;9.338;2023-03-03T15:25:58;11.37;;;6.33;;
20230;SDS011;10274;49.022;9.338;2023-03-03T15:28:31;8.77;;;6.03;;